Scroll for more >

River gauges, storages, and weirs in the Murray–Darling Basin

Type Locationsort descending River Water level Flow Volume Release Water temp Salinity Rainfall
River Gauge Albury (Union Bridge) Murray 2.31 m 17/10/2017 14:15 Not measured Not measured Not measured 14.0°C 17/10/2017 14:15 51.3 μS/cm 17/10/2017 14:15 Not measured Full data
River Gauge Balranald Murrumbidgee 1.58 m 17/10/2017 13:45 1090 ML/Day 17/10/2017 13:45 Not measured Not measured 20.5°C 17/10/2017 13:45 175.3 μS/cm 17/10/2017 13:45 Not measured Full data
River Gauge Bandiana Kiewa 2.55 m 17/10/2017 13:45 3042 ML/Day 17/10/2017 13:45 Not measured Not measured 14.2°C 17/10/2017 13:45 343.4 μS/cm 17/10/2017 13:45 Not measured Full data
River Gauge Biggara Murray 0.68 m 17/10/2017 14:15 1087 ML/Day 17/10/2017 14:15 Not measured Not measured 16.3°C 17/10/2017 14:15 34.5 μS/cm 17/10/2017 14:15 0.0 mm 17/10/2017 9:00 Full data
River Gauge Bringenbrong Bridge Murray 1.51 m 17/10/2017 14:15 3772 ML/Day 17/10/2017 14:15 Not measured Not measured Not measured Not measured Not measured Full data
River Gauge Burtundy Darling 0.83 m 17/10/2017 14:15 415 ML/Day 17/10/2017 14:15 Not measured Not measured 24.4°C 17/10/2017 14:15 736.0 μS/cm 17/10/2017 14:15 Not measured Full data
River Gauge Colemans Mitta 0.89 m 17/10/2017 15:00 214 ML/Day 17/10/2017 15:00 Not measured Not measured 16.3°C 17/10/2017 13:45 83.4 μS/cm 17/10/2017 13:45 Not measured Full data
River Gauge Colignan Murray 2.25 m 17/10/2017 13:45 8253 ML/Day 17/10/2017 13:45 Not measured Not measured 22.0°C 17/10/2017 13:45 42.2 μS/cm 17/10/2017 13:45 Not measured Full data
River Gauge Corowa Murray 3.33 m 17/10/2017 14:15 16655 ML/Day 17/10/2017 14:15 Not measured Not measured 16.6°C 17/10/2017 14:15 48.1 μS/cm 17/10/2017 14:15 Not measured Full data
Storage Dartmouth Dam Mitta 477.21 m 17/10/2017 15:00 Not measured 3306 GL 17/10/2017 15:00 Not measured Not measured Not measured Not measured Full data
River Gauge Doctors Point Murray 3.29 m 17/10/2017 14:15 18256 ML/Day 17/10/2017 14:15 Not measured Not measured 13.8°C 17/10/2017 14:15 64.2 μS/cm 17/10/2017 14:15 Not measured Full data
River Gauge Echuca Wharf Murray 87.38 m 25/09/2017 9:00 Not measured Not measured Not measured Not measured Not measured Not measured Full data
River Gauge Edward Escape Wakool 0.79 m 17/10/2017 13:45 832 ML/Day 17/10/2017 13:45 Not measured Not measured 20.5°C 17/10/2017 13:45 26.4 μS/cm 17/10/2017 13:45 Not measured Full data
River Gauge Edward River Offtake Murray 2.4 m 17/10/2017 14:30 1566 ML/Day 17/10/2017 14:30 Not measured Not measured 19.8°C 17/10/2017 13:45 40.2 μS/cm 17/10/2017 13:45 Not measured Full data
Weirs Euston Weir Downstream Murray 43.6 m 17/10/2017 13:45 8366 ML/Day 17/10/2017 13:45 Not measured Not measured 20.0°C 17/10/2017 13:45 106.7 μS/cm 17/10/2017 13:45 Not measured Full data
Weirs Euston Weir Upstream Murray 47.86 m 17/10/2017 7:45 Not measured 41 GL 17/10/2017 7:45 Not measured Not measured Not measured 0.0 mm 16/10/2017 9:00 Full data
River Gauge Flow to South Australia Murray Not measured Not measured Not measured 9261.9 ML/d17/10/2017 7:45 Not measured Not measured Not measured Full data
River Gauge Frenchman Creek Murray 27.44 m 17/10/2017 7:45 Not measured Not measured 1056.4 ML/d17/10/2017 7:45 Not measured Not measured Not measured Full data
River Gauge Gulpa Creek Offtake Murray 2.82 m 17/10/2017 13:45 509 ML/Day 17/10/2017 13:45 Not measured Not measured Not measured Not measured Not measured Full data
River Gauge Hinnomunjie Mitta 1.22 m 17/10/2017 13:45 2246 ML/Day 17/10/2017 13:45 Not measured Not measured 11.8°C 17/10/2017 13:45 10.9 μS/cm 17/10/2017 13:45 0.0 mm 17/10/2017 9:00 Full data
Storage Hume Dam Murray 190.14 m 17/10/2017 14:15 Not measured 2645 GL 17/10/2017 14:15 15749.0 ML/d17/10/2017 8:00 Not measured Not measured 0.0 mm 17/10/2017 9:00 Full data
River Gauge Jingellic Murray 1.87 m 17/10/2017 13:45 5875 ML/Day 17/10/2017 13:45 Not measured Not measured 17.2°C 17/10/2017 13:45 17.8 μS/cm 17/10/2017 13:45 0.0 mm 17/10/2017 9:00 Full data
River Gauge Kerang Loddon 0.56 m 17/10/2017 13:45 675 ML/Day 17/10/2017 13:45 Not measured Not measured 23.8°C 17/10/2017 13:45 150.4 μS/cm 17/10/2017 13:45 Not measured Full data
River Gauge Lake Albert Murray 0.77 m 17/10/2017 7:45 Not measured 274 GL 17/10/2017 7:45 Not measured Not measured Not measured Not measured Full data
River Gauge Lake Alexandrina Murray 0.79 m 17/10/2017 7:45 Not measured 1640 GL 17/10/2017 7:45 Not measured Not measured 639.9 μS/cm 17/10/2017 13:45 Not measured Full data
Storage Lake Victoria Murray 26.56 m 17/10/2017 13:45 Not measured 624 GL 17/10/2017 13:45 Not measured 17.8°C 17/10/2017 13:45 216.6 μS/cm 17/10/2017 13:45 Not measured Full data
Weirs Lock 1 Downstream Murray 0.83 m 17/10/2017 13:45 Not measured Not measured 10222.4 ML/d17/10/2017 7:45 Not measured Not measured Not measured Full data
Weirs Lock 1 Upstream Murray 3.17 m 17/10/2017 13:45 Not measured Not measured Not measured 21.2°C 17/10/2017 13:45 423.2 μS/cm 17/10/2017 13:45 Not measured Full data
Weirs Lock 2 Downstream Murray 3.59 m 17/10/2017 13:45 Not measured Not measured Not measured Not measured Not measured Not measured Full data
Weirs Lock 2 Upstream Murray 6.31 m 17/10/2017 13:45 Not measured Not measured Not measured 20.7°C 17/10/2017 13:45 369.4 μS/cm 17/10/2017 13:45 Not measured Full data
Weirs Lock 3 Downstream Murray 6.64 m 17/10/2017 13:45 Not measured Not measured Not measured Not measured Not measured Not measured Full data
Weirs Lock 3 Upstream Murray 9.82 m 17/10/2017 13:45 Not measured Not measured Not measured Not measured Not measured Not measured Full data
Weirs Lock 4 Downstream Murray 10.8 m 17/10/2017 13:45 Not measured Not measured Not measured Not measured Not measured Not measured Full data
Weirs Lock 4 Upstream Murray 13.25 m 17/10/2017 13:45 Not measured Not measured Not measured Not measured Not measured Not measured Full data
Weirs Lock 5 Downstream Murray 13.49 m 17/10/2017 13:45 Not measured Not measured Not measured Not measured Not measured Not measured Full data
Weirs Lock 5 Upstream Murray 16.45 m 17/10/2017 13:45 Not measured Not measured Not measured 20.9°C 17/10/2017 13:45 228.3 μS/cm 17/10/2017 13:45 Not measured Full data
Weirs Lock 6 Downstream Murray 16.56 m 17/10/2017 13:45 Not measured Not measured Not measured Not measured Not measured Not measured Full data
Weirs Lock 6 Upstream Murray 19.31 m 17/10/2017 13:45 Not measured Not measured Not measured 20.8°C 17/10/2017 13:45 192.2 μS/cm 17/10/2017 13:45 Not measured Full data
Weirs Lock 7 Downstream Murray 20.55 m 17/10/2017 13:45 Not measured Not measured Not measured Not measured Not measured Not measured Full data
Weirs Lock 7 Upstream Murray 22.58 m 17/10/2017 13:45 Not measured Not measured Not measured 20.6°C 17/10/2017 13:45 166.0 μS/cm 17/10/2017 13:45 Not measured Full data
Weirs Lock 8 Upstream Murray 24.91 m 17/10/2017 7:45 Not measured Not measured Not measured 16.5°C 25/09/2017 18:45 167.8 μS/cm 25/09/2017 18:45 Not measured Full data
Weirs Lock 9 Downstream Murray 24.93 m 17/10/2017 13:45 Not measured Not measured Not measured Not measured Not measured Not measured Full data
Weirs Lock 9 Upstream Murray 27.42 m 17/10/2017 13:45 Not measured Not measured Not measured 22.2°C 17/10/2017 13:45 179.9 μS/cm 17/10/2017 13:45 Not measured Full data
River Gauge McCoy Bridge Goulburn 1.44 m 17/10/2017 13:45 866 ML/Day 17/10/2017 13:45 Not measured Not measured 20.7°C 17/10/2017 13:45 85.8 μS/cm 17/10/2017 13:45 Not measured Full data
Storage Menindee Lakes Darling Not measured Not measured 611 GL 17/10/2017 7:45 Not measured Not measured Not measured Not measured Full data
Weirs Mildura Weir downstream Murray 30.99 m 17/10/2017 13:45 Not measured Not measured Not measured 21.2°C 17/10/2017 13:45 152.9 μS/cm 17/10/2017 13:45 Not measured Full data
River Gauge Morgan Downstream Murray Not measured Not measured Not measured 8135.0 ML/d17/10/2017 13:45 Not measured 397.1 μS/cm 17/10/2017 11:45 Not measured Full data
River Gauge Mulwala Canal Murray Not measured Not measured Not measured 4318.6 ML/d17/10/2017 7:45 Not measured Not measured Not measured Full data
River Gauge Mundoo Barrage Murray 0.84 m 17/10/2017 7:45 Not measured Not measured Not measured Not measured Not measured Not measured Full data
River Gauge Murray Bridge Murray 0.72 m 17/10/2017 13:45 Not measured Not measured Not measured 18.6°C 17/10/2017 13:45 445.8 μS/cm 17/10/2017 13:45 Not measured Full data
River Gauge Peechelba Ovens 127.8 m 17/10/2017 13:45 2930 ML/Day 17/10/2017 13:45 Not measured Not measured 18.4°C 17/10/2017 13:45 49.0 μS/cm 17/10/2017 13:45 Not measured Full data
River Gauge Pinegrove Murray 1.28 m 17/10/2017 14:15 462 ML/Day 17/10/2017 14:15 Not measured Not measured 18.8°C 17/10/2017 14:15 91.8 μS/cm 17/10/2017 14:15 0.0 mm 17/10/2017 9:00 Full data
River Gauge Rochester Campaspe 1.77 m 17/10/2017 13:45 120 ML/Day 17/10/2017 13:45 Not measured Not measured 18.5°C 17/10/2017 13:45 506.2 μS/cm 17/10/2017 13:45 0.0 mm 17/10/2017 9:00 Full data
River Gauge Rufus River Murray 20.96 m 17/10/2017 7:45 Not measured Not measured 2679.3 ML/d17/10/2017 7:45 Not measured 214.8 μS/cm 17/10/2017 11:45 Not measured Full data
Weirs Steven's Weir Downstream Wakool 2.45 m 17/10/2017 13:45 2725 ML/Day 17/10/2017 13:45 Not measured Not measured 20.2°C 17/10/2017 13:45 44.2 μS/cm 17/10/2017 13:45 0.0 mm 16/10/2017 9:00 Full data
Weirs Steven's Weir Upstream Wakool 4.86 m 17/10/2017 14:30 Not measured Not measured Not measured Not measured Not measured Not measured Full data
River Gauge Stoney Crossing Murray 1.55 m 17/10/2017 13:45 735 ML/Day 17/10/2017 13:45 Not measured 720.0 ML/d17/10/2017 7:45 21.5°C 17/10/2017 13:45 192.5 μS/cm 17/10/2017 13:45 Not measured Full data
River Gauge Swan Hill Murray 1.37 m 17/10/2017 13:45 6724 ML/Day 17/10/2017 13:45 Not measured Not measured 20.1°C 17/10/2017 13:45 81.6 μS/cm 17/10/2017 13:45 Not measured Full data
River Gauge Tallandoon Mitta 1.58 m 17/10/2017 13:45 991 ML/Day 17/10/2017 13:45 Not measured Not measured 19.3°C 17/10/2017 13:45 35.0 μS/cm 17/10/2017 13:45 Not measured Full data
River Gauge Tauwitchere Barrage Murray 0.83 m 17/10/2017 13:45 Not measured Not measured Not measured Not measured Not measured Not measured Full data
River Gauge Tocumwal Murray 2.96 m 17/10/2017 13:45 14800 ML/Day 17/10/2017 13:45 Not measured Not measured 19.7°C 17/10/2017 13:45 48.1 μS/cm 17/10/2017 13:45 Not measured Full data
River Gauge Torrumbarry Headworks Murray 85.14 m 17/10/2017 13:45 Not measured Not measured 2633.9 ML/d17/10/2017 13:45 Not measured Not measured Not measured Full data
Weirs Torrumbarry Weir Downstream Murray 2.13 m 17/10/2017 13:45 5992 ML/Day 17/10/2017 13:45 Not measured Not measured 19.1°C 17/10/2017 13:45 67.3 μS/cm 17/10/2017 13:45 Not measured Full data
Weirs Torrumbarry Weir Upstream Murray 86.05 m 17/10/2017 7:45 Not measured 37 GL 17/10/2017 7:45 Not measured 18.4°C 17/10/2017 7:45 67.0 μS/cm 17/10/2017 7:45 0.0 mm 16/10/2017 9:00 Full data
River Gauge Wakool Canal Wakool 0.71 m 17/10/2017 13:45 Not measured Not measured 1122.2 ML/d17/10/2017 8:45 Not measured Not measured Not measured Full data
River Gauge Wakool Junction Murray 3.24 m 17/10/2017 13:45 8622 ML/Day 17/10/2017 13:45 Not measured Not measured 20.3°C 17/10/2017 13:45 87.2 μS/cm 17/10/2017 13:45 Not measured Full data
River Gauge Weir 32 Upstream Darling 1.92 m 17/10/2017 13:45 1854 ML/Day 17/10/2017 13:45 Not measured Not measured 21.5°C 17/10/2017 13:45 694.6 μS/cm 17/10/2017 13:45 Not measured Full data
Weirs Wentworth Weir Murray 27.72 m 17/10/2017 13:45 Not measured Not measured 7597.1 ML/d17/10/2017 7:45 Not measured 167.0 μS/cm 17/10/2017 7:45 0.0 mm 16/10/2017 9:00 Full data
River Gauge Wilcania Darling 0.43 m 17/10/2017 13:45 193 ML/Day 17/10/2017 13:45 Not measured Not measured 22.1°C 17/10/2017 13:45 354.6 μS/cm 17/10/2017 13:45 Not measured Full data
River Gauge Yarrawonga Main Channel Murray 123.93 m 17/10/2017 13:45 Not measured Not measured 1650.0 ML/d17/10/2017 7:45 Not measured Not measured Not measured Full data
Weirs Yarrawonga Weir Downstream Murray 2.33 m 17/10/2017 14:15 15051 ML/Day 17/10/2017 14:15 Not measured Not measured 20.3°C 17/10/2017 14:15 58.3 μS/cm 17/10/2017 14:15 Not measured Full data
Weirs Yarrawonga Weir Upstream Murray 124.75 m 17/10/2017 14:00 Not measured Not measured Not measured Not measured Not measured 0.0 mm 17/10/2017 9:00 Full data